PWSweather.com
Personal Weather Stations
Station Observations
KCAPORTE1
Orchard Ridge, Porterville, CA 93257

Orchard RidgePorterville, CA 93257

Lat: 36.088946, Lon: -119.057632

Elevation: 423

Station Type: Davis Vantage Vue

http://weather.manyjourneys.com/

Latest ConditionsUpdated 12:00:01 PM PDT Sunday, May 24, 2015
Currently Today's Max Today's Min Today's Average
Temperature 75.4°F24.1°C 75.4°F24.1°C 55.2°F12.9°C 62.2°F16.8°C
Dew Point 56.6°F13.7°C 57.3°F14.1°C 49.6°F9.8°C 52.6°F11.4°C
Winds 1.2 mph WNW1.9 kmh WNW 2.3 mph N3.7 kmh N - 0.2 mph 0.3 kmh
Wind Gusts 2.3 mph3.7 kmh 4.6 mph7.4 kmh - -
Humidity 52% 83% 52% 71%
Pressure 29.96 in1014.6 mb 29.98 in1015.2 mb 29.91 in1012.9 mb -
Hour Temp Dew Point Humidity Winds Wind Gusts Pressure Precip Precip Rate Daily Precip Total
12:00 PM 75.4°F24.1°C 56.6°F13.7°C 52% 1.2 mph WNW1.9 kmh WNW 2.3 mph3.7 kmh 29.96 in1014.6 mb - 0.00 in0.0 mm 0.00 in0.0 mm
11:50 AM 73.9°F23.3°C 57.3°F14.1°C 56% Calm Calm 1.2 mph1.9 kmh 29.96 in1014.6 mb - 0.00 in0.0 mm 0.00 in0.0 mm
11:40 AM 72.9°F22.7°C 55.8°F13.2°C 55% 1.2 mph N1.9 kmh N 4.6 mph7.4 kmh 29.96 in1014.6 mb - 0.00 in0.0 mm 0.00 in0.0 mm
11:30 AM 73.0°F22.8°C 55.9°F13.3°C 55% 1.2 mph WNW1.9 kmh WNW 3.5 mph5.6 kmh 29.96 in1014.6 mb - 0.00 in0.0 mm 0.00 in0.0 mm
11:20 AM 72.1°F22.3°C 55.0°F12.8°C 55% Calm Calm 2.3 mph3.7 kmh 29.96 in1014.6 mb - 0.00 in0.0 mm 0.00 in0.0 mm
11:10 AM 71.9°F22.2°C 55.4°F13.0°C 56% Calm Calm -- 29.97 in1014.9 mb - 0.00 in0.0 mm 0.00 in0.0 mm
11:00 AM 71.4°F21.9°C 56.3°F13.5°C 59% Calm Calm 1.2 mph1.9 kmh 29.97 in1014.9 mb - 0.00 in0.0 mm 0.00 in0.0 mm
10:50 AM 70.6°F21.4°C 55.6°F13.1°C 59% Calm Calm 1.2 mph1.9 kmh 29.97 in1014.9 mb - 0.00 in0.0 mm 0.00 in0.0 mm
10:40 AM 69.9°F21.1°C 54.9°F12.7°C 59% Calm Calm 2.3 mph3.7 kmh 29.97 in1014.9 mb - 0.00 in0.0 mm 0.00 in0.0 mm
10:30 AM 69.2°F20.7°C 55.1°F12.8°C 61% Calm Calm 1.2 mph1.9 kmh 29.97 in1014.9 mb - 0.00 in0.0 mm 0.00 in0.0 mm
10:20 AM 68.7°F20.4°C 55.1°F12.8°C 62% Calm Calm 1.2 mph1.9 kmh 29.97 in1014.9 mb - 0.00 in0.0 mm 0.00 in0.0 mm
10:10 AM 68.1°F20.1°C 55.0°F12.8°C 63% Calm Calm 2.3 mph3.7 kmh 29.97 in1014.9 mb - 0.00 in0.0 mm 0.00 in0.0 mm
10:00 AM 67.1°F19.5°C 54.1°F12.3°C 63% Calm Calm 1.2 mph1.9 kmh 29.97 in1014.9 mb - 0.00 in0.0 mm 0.00 in0.0 mm
09:50 AM 66.6°F19.2°C 54.4°F12.4°C 65% Calm Calm 1.2 mph1.9 kmh 29.97 in1014.9 mb - 0.00 in0.0 mm 0.00 in0.0 mm
09:40 AM 66.1°F18.9°C 53.1°F11.7°C 63% Calm Calm 2.3 mph3.7 kmh 29.97 in1014.9 mb - 0.00 in0.0 mm 0.00 in0.0 mm
09:30 AM 66.0°F18.9°C 54.3°F12.4°C 66% Calm Calm 1.2 mph1.9 kmh 29.98 in1015.2 mb - 0.00 in0.0 mm 0.00 in0.0 mm
09:20 AM 65.0°F18.3°C 53.4°F11.9°C 66% Calm Calm 1.2 mph1.9 kmh 29.98 in1015.2 mb - 0.00 in0.0 mm 0.00 in0.0 mm
09:10 AM 64.2°F17.9°C 52.6°F11.4°C 66% Calm Calm -- 29.98 in1015.2 mb - 0.00 in0.0 mm 0.00 in0.0 mm
09:00 AM 63.8°F17.7°C 52.7°F11.5°C 67% Calm Calm 1.2 mph1.9 kmh 29.98 in1015.2 mb - 0.00 in0.0 mm 0.00 in0.0 mm
08:50 AM 63.1°F17.3°C 52.4°F11.3°C 68% Calm Calm 1.2 mph1.9 kmh 29.98 in1015.2 mb - 0.00 in0.0 mm 0.00 in0.0 mm
08:40 AM 62.6°F17.0°C 52.7°F11.5°C 70% Calm Calm -- 29.98 in1015.2 mb - 0.00 in0.0 mm 0.00 in0.0 mm
08:30 AM 62.1°F16.7°C 51.8°F11.0°C 69% Calm Calm -- 29.98 in1015.2 mb - 0.00 in0.0 mm 0.00 in0.0 mm
08:20 AM 61.7°F16.5°C 51.8°F11.0°C 70% Calm Calm -- 29.98 in1015.2 mb - 0.00 in0.0 mm 0.00 in0.0 mm
08:10 AM 61.3°F16.3°C 51.8°F11.0°C 71% Calm Calm -- 29.97 in1014.9 mb - 0.00 in0.0 mm 0.00 in0.0 mm
08:00 AM 61.2°F16.2°C 51.7°F10.9°C 71% Calm Calm -- 29.98 in1015.2 mb - 0.00 in0.0 mm 0.00 in0.0 mm
07:50 AM 60.5°F15.8°C 51.8°F11.0°C 73% Calm Calm -- 29.98 in1015.2 mb - 0.00 in0.0 mm 0.00 in0.0 mm
07:40 AM 58.9°F14.9°C 51.3°F10.7°C 76% Calm Calm -- 29.98 in1015.2 mb - 0.00 in0.0 mm 0.00 in0.0 mm
07:30 AM 57.9°F14.4°C 50.7°F10.4°C 77% Calm Calm -- 29.98 in1015.2 mb - 0.00 in0.0 mm 0.00 in0.0 mm
07:20 AM 57.3°F14.1°C 50.5°F10.3°C 78% Calm Calm -- 29.98 in1015.2 mb - 0.00 in0.0 mm 0.00 in0.0 mm
07:10 AM 56.8°F13.8°C 50.0°F10.0°C 78% Calm Calm -- 29.98 in1015.2 mb - 0.00 in0.0 mm 0.00 in0.0 mm
07:00 AM 56.3°F13.5°C 49.9°F9.9°C 79% Calm Calm -- 29.97 in1014.9 mb - 0.00 in0.0 mm 0.00 in0.0 mm
06:50 AM 55.8°F13.2°C 50.1°F10.1°C 81% Calm Calm -- 29.97 in1014.9 mb - 0.00 in0.0 mm 0.00 in0.0 mm
06:40 AM 55.4°F13.0°C 49.6°F9.8°C 81% Calm Calm -- 29.97 in1014.9 mb - 0.00 in0.0 mm 0.00 in0.0 mm
06:30 AM 55.2°F12.9°C 49.8°F9.9°C 82% Calm Calm -- 29.96 in1014.6 mb - 0.00 in0.0 mm 0.00 in0.0 mm
06:20 AM 55.2°F12.9°C 49.8°F9.9°C 82% Calm Calm -- 29.96 in1014.6 mb - 0.00 in0.0 mm 0.00 in0.0 mm
06:10 AM 55.3°F12.9°C 49.9°F9.9°C 82% Calm Calm -- 29.96 in1014.6 mb - 0.00 in0.0 mm 0.00 in0.0 mm
06:00 AM 55.5°F13.1°C 50.1°F10.1°C 82% Calm Calm -- 29.95 in1014.2 mb - 0.00 in0.0 mm 0.00 in0.0 mm
05:50 AM 55.6°F13.1°C 50.2°F10.1°C 82% Calm Calm -- 29.95 in1014.2 mb - 0.00 in0.0 mm 0.00 in0.0 mm
05:40 AM 55.8°F13.2°C 50.1°F10.1°C 81% Calm Calm -- 29.95 in1014.2 mb - 0.00 in0.0 mm 0.00 in0.0 mm
05:30 AM 56.1°F13.4°C 50.6°F10.3°C 82% Calm Calm -- 29.95 in1014.2 mb - 0.00 in0.0 mm 0.00 in0.0 mm
05:20 AM 56.3°F13.5°C 50.5°F10.3°C 81% Calm Calm -- 29.95 in1014.2 mb - 0.00 in0.0 mm 0.00 in0.0 mm
05:10 AM 56.7°F13.7°C 51.2°F10.7°C 82% Calm Calm -- 29.95 in1014.2 mb - 0.00 in0.0 mm 0.00 in0.0 mm
05:00 AM 56.9°F13.8°C 50.8°F10.4°C 80% Calm Calm -- 29.95 in1014.2 mb - 0.00 in0.0 mm 0.00 in0.0 mm
04:50 AM 57.4°F14.1°C 51.6°F10.9°C 81% Calm Calm -- 29.94 in1013.9 mb - 0.00 in0.0 mm 0.00 in0.0 mm
04:40 AM 57.6°F14.2°C 52.2°F11.2°C 82% Calm Calm -- 29.94 in1013.9 mb - 0.00 in0.0 mm 0.00 in0.0 mm
04:30 AM 57.8°F14.3°C 52.3°F11.3°C 82% Calm Calm -- 29.94 in1013.9 mb - 0.00 in0.0 mm 0.00 in0.0 mm
04:20 AM 57.8°F14.3°C 52.7°F11.5°C 83% Calm Calm -- 29.94 in1013.9 mb - 0.00 in0.0 mm 0.00 in0.0 mm
04:10 AM 57.9°F14.4°C 52.1°F11.2°C 81% Calm Calm -- 29.94 in1013.9 mb - 0.00 in0.0 mm 0.00 in0.0 mm
04:00 AM 58.3°F14.6°C 51.8°F11.0°C 79% Calm Calm -- 29.94 in1013.9 mb - 0.00 in0.0 mm 0.00 in0.0 mm
03:50 AM 58.9°F14.9°C 52.1°F11.2°C 78% Calm Calm -- 29.94 in1013.9 mb - 0.00 in0.0 mm 0.00 in0.0 mm
03:40 AM 59.5°F15.3°C 52.3°F11.3°C 77% Calm Calm -- 29.94 in1013.9 mb - 0.00 in0.0 mm 0.00 in0.0 mm
03:30 AM 60.0°F15.6°C 52.4°F11.3°C 76% Calm Calm -- 29.94 in1013.9 mb - 0.00 in0.0 mm 0.00 in0.0 mm
03:20 AM 60.3°F15.7°C 52.3°F11.3°C 75% Calm Calm -- 29.94 in1013.9 mb - 0.00 in0.0 mm 0.00 in0.0 mm
03:10 AM 60.7°F15.9°C 52.7°F11.5°C 75% Calm Calm -- 29.93 in1013.5 mb - 0.00 in0.0 mm 0.00 in0.0 mm
03:00 AM 60.9°F16.1°C 52.6°F11.4°C 74% Calm Calm -- 29.93 in1013.5 mb - 0.00 in0.0 mm 0.00 in0.0 mm
02:50 AM 60.9°F16.1°C 52.6°F11.4°C 74% Calm Calm -- 29.93 in1013.5 mb - 0.00 in0.0 mm 0.00 in0.0 mm
02:40 AM 60.8°F16.0°C 52.5°F11.4°C 74% Calm Calm -- 29.93 in1013.5 mb - 0.00 in0.0 mm 0.00 in0.0 mm
02:30 AM 60.7°F15.9°C 52.4°F11.3°C 74% Calm Calm -- 29.93 in1013.5 mb - 0.00 in0.0 mm 0.00 in0.0 mm
02:20 AM 60.8°F16.0°C 52.1°F11.2°C 73% Calm Calm -- 29.93 in1013.5 mb - 0.00 in0.0 mm 0.00 in0.0 mm
02:10 AM 61.0°F16.1°C 52.3°F11.3°C 73% Calm Calm -- 29.93 in1013.5 mb - 0.00 in0.0 mm 0.00 in0.0 mm
02:00 AM 61.3°F16.3°C 52.2°F11.2°C 72% Calm Calm -- 29.93 in1013.5 mb - 0.00 in0.0 mm 0.00 in0.0 mm
01:50 AM 61.7°F16.5°C 52.2°F11.2°C 71% Calm Calm -- 29.93 in1013.5 mb - 0.00 in0.0 mm 0.00 in0.0 mm
01:40 AM 62.1°F16.7°C 52.2°F11.2°C 70% Calm Calm -- 29.93 in1013.5 mb - 0.00 in0.0 mm 0.00 in0.0 mm
01:30 AM 62.4°F16.9°C 52.5°F11.4°C 70% Calm Calm -- 29.93 in1013.5 mb - 0.00 in0.0 mm 0.00 in0.0 mm
01:20 AM 62.9°F17.2°C 52.6°F11.4°C 69% Calm Calm -- 29.93 in1013.5 mb - 0.00 in0.0 mm 0.00 in0.0 mm
01:10 AM 63.2°F17.3°C 52.5°F11.4°C 68% Calm Calm 1.2 mph1.9 kmh 29.92 in1013.2 mb - 0.00 in0.0 mm 0.00 in0.0 mm
01:00 AM 63.4°F17.4°C 52.7°F11.5°C 68% 1.2 mph N1.9 kmh N 1.2 mph1.9 kmh 29.92 in1013.2 mb - 0.00 in0.0 mm 0.00 in0.0 mm
12:50 AM 63.7°F17.6°C 52.5°F11.4°C 67% 1.2 mph NNE1.9 kmh NNE 2.3 mph3.7 kmh 29.91 in1012.9 mb - 0.00 in0.0 mm 0.00 in0.0 mm
12:40 AM 64.0°F17.8°C 52.8°F11.6°C 67% 1.2 mph NW1.9 kmh NW 2.3 mph3.7 kmh 29.91 in1012.9 mb - 0.00 in0.0 mm 0.00 in0.0 mm
12:30 AM 64.3°F17.9°C 53.1°F11.7°C 67% 2.3 mph N3.7 kmh N 4.6 mph7.4 kmh 29.92 in1013.2 mb - 0.00 in0.0 mm 0.00 in0.0 mm
12:20 AM 64.7°F18.2°C 53.1°F11.7°C 66% Calm Calm 2.3 mph3.7 kmh 29.91 in1012.9 mb - 0.00 in0.0 mm 0.00 in0.0 mm
12:10 AM 65.2°F18.4°C 53.6°F12.0°C 66% Calm Calm 2.3 mph3.7 kmh 29.91 in1012.9 mb - 0.00 in0.0 mm 0.00 in0.0 mm
12:00 AM 65.6°F18.7°C 53.5°F11.9°C 65% 2.3 mph N3.7 kmh N 3.5 mph5.6 kmh 29.91 in1012.9 mb - 0.00 in0.0 mm 0.00 in0.0 mm